Observations for Trim Market St
| Time | AQI | Temp °C | Hum % | Pres Pa | CO μg/m³ | H₂S μg/m³ | NO μg/m³ | NO₂ μg/m³ | O₃ μg/m³ | SO₂ μg/m³ | PM1 μg/m³ | PM2.5 μg/m³ | PM10 μg/m³ |
|---|---|---|---|---|---|---|---|---|---|---|---|---|---|
| Monday 17 August 2026 | |||||||||||||
| 10:08 | 2 | 22 | 66 | 56,005 | 0.09 | 0 | 3.22 | 5.24 | 29.88 | 0 | 2.14 | 5.2 | 8.18 |
| 10:07 | 2 | 22 | 66 | 55,972 | 0.21 | 0 | 3.01 | 5.73 | 19.2 | 0 | 2.14 | 3.72 | 6.23 |
| 10:06 | 2 | 22 | 66 | 55,952 | 0.17 | 0 | 3.09 | 5.72 | 27.35 | 0 | 0.71 | 2.74 | 4.29 |
| 10:05 | 2 | 22 | 66 | 55,920 | 0.13 | 0 | 3.33 | 5.2 | 33.44 | 0 | 1.43 | 3.22 | 6.23 |
| 10:04 | 2 | 22 | 67 | 55,878 | 0.06 | 0 | 2.8 | 4.9 | 32.92 | 0 | 1.43 | 2.72 | 4.94 |
| 10:03 | 2 | 22 | 67 | 55,829 | 0.12 | 0 | 2.43 | 4.29 | 22.07 | 0 | 0.71 | 2.22 | 3.65 |
| 10:02 | 2 | 22 | 67 | 55,755 | 0.25 | 0 | 1.98 | 5.24 | 32.97 | 0 | 1.43 | 2.71 | 4.3 |
| 10:01 | 2 | 21.9 | 67 | 55,701 | 0.21 | 0 | 1.74 | 5.06 | 29.24 | 0 | 1.43 | 3.2 | 4.95 |
| 10:00 | 2 | 21.9 | 67 | 55,618 | 0.08 | 0 | 1.42 | 4.08 | 31.85 | 0 | 2.14 | 4.17 | 7.53 |
| 09:59 | 2 | 21.9 | 67 | 55,494 | 0.07 | 0 | 1.38 | 3.94 | 45.94 | 0 | 0.71 | 2.2 | 6.89 |
| 09:58 | 2 | 21.9 | 67 | 55,360 | 0.07 | 0 | 1.37 | 3.76 | 39.37 | 0 | 1.43 | 3.18 | 4.96 |
| 09:57 | 2 | 21.8 | 68 | 55,203 | 0.11 | 0 | 3.32 | 3.22 | 26.81 | 0 | 1.43 | 3.65 | 5.61 |
| 09:56 | 2 | 21.8 | 68 | 54,951 | 0.13 | 0 | 3.24 | 4.47 | 37.34 | 0 | 0.71 | 3.15 | 4.97 |
| 09:54 | 2 | 21.7 | 68 | 54,704 | 0.52 | 0 | 3.46 | 7.58 | 23.77 | 0 | 3.56 | 4.6 | 6.89 |
| 09:47 | 2 | 21.3 | 70 | 52,778 | 0.15 | 0 | 1.54 | 3.88 | 38.36 | 0 | 2.85 | 4.53 | 7.53 |
| 09:45 | 2 | 21.2 | 70 | 52,334 | 0.51 | 0 | 1.55 | 3.84 | 36.6 | 0 | 1.43 | 2.58 | 5.65 |
| 09:44 | 2 | 21.1 | 70 | 52,106 | 0.87 | 0 | 1.56 | 3.96 | 37.69 | 0 | 1.43 | 4.03 | 6.28 |
| 09:39 | 2 | 20.9 | 71 | 50,333 | 0.13 | 0 | 2.01 | 3.39 | 46.43 | 0 | 0.71 | 2.05 | 3.79 |
| 09:38 | 2 | 20.8 | 71 | 49,484 | 0.15 | 0 | 1.96 | 2.76 | 35.8 | 0 | 1.43 | 3.5 | 5.67 |
| 09:37 | 2 | 20.8 | 71 | 48,554 | 0.2 | 0 | 1.73 | 3.49 | 38.92 | 0 | 0 | 2.51 | 5.05 |